sensor_id;sensor_type;location;lat;lon;timestamp;P1;durP1;ratioP1;P2;durP2;ratioP2
23952;SDS011;12163;49.316;6.092;2023-04-08T00:00:54;28.80;;;16.92;;
23952;SDS011;12163;49.316;6.092;2023-04-08T00:03:21;29.88;;;16.48;;
23952;SDS011;12163;49.316;6.092;2023-04-08T00:05:47;26.85;;;16.33;;
23952;SDS011;12163;49.316;6.092;2023-04-08T00:08:14;28.35;;;17.00;;
23952;SDS011;12163;49.316;6.092;2023-04-08T00:10:41;27.85;;;16.95;;
23952;SDS011;12163;49.316;6.092;2023-04-08T00:13:07;27.35;;;17.75;;
23952;SDS011;12163;49.316;6.092;2023-04-08T00:15:35;27.98;;;17.48;;
23952;SDS011;12163;49.316;6.092;2023-04-08T00:18:02;27.77;;;17.83;;
23952;SDS011;12163;49.316;6.092;2023-04-08T00:20:29;31.25;;;17.67;;
23952;SDS011;12163;49.316;6.092;2023-04-08T00:22:55;29.40;;;17.95;;
23952;SDS011;12163;49.316;6.092;2023-04-08T00:25:22;29.20;;;17.90;;
23952;SDS011;12163;49.316;6.092;2023-04-08T00:27:50;31.77;;;18.17;;
23952;SDS011;12163;49.316;6.092;2023-04-08T00:30:17;26.00;;;17.60;;
23952;SDS011;12163;49.316;6.092;2023-04-08T00:32:44;29.75;;;17.45;;
23952;SDS011;12163;49.316;6.092;2023-04-08T00:35:11;29.63;;;18.50;;
23952;SDS011;12163;49.316;6.092;2023-04-08T00:37:38;28.05;;;17.40;;
23952;SDS011;12163;49.316;6.092;2023-04-08T00:40:04;29.83;;;17.58;;
23952;SDS011;12163;49.316;6.092;2023-04-08T00:42:31;28.08;;;17.52;;
23952;SDS011;12163;49.316;6.092;2023-04-08T00:44:58;27.00;;;17.80;;
23952;SDS011;12163;49.316;6.092;2023-04-08T00:47:25;26.48;;;17.05;;
23952;SDS011;12163;49.316;6.092;2023-04-08T00:49:51;28.40;;;17.15;;
23952;SDS011;12163;49.316;6.092;2023-04-08T00:52:18;30.08;;;17.70;;
23952;SDS011;12163;49.316;6.092;2023-04-08T00:54:45;31.85;;;17.58;;
23952;SDS011;12163;49.316;6.092;2023-04-08T00:57:11;32.33;;;17.70;;
23952;SDS011;12163;49.316;6.092;2023-04-08T00:59:38;26.83;;;17.73;;
23952;SDS011;12163;49.316;6.092;2023-04-08T01:10:15;29.88;;;17.70;;
23952;SDS011;12163;49.316;6.092;2023-04-08T01:12:49;30.88;;;18.23;;
23952;SDS011;12163;49.316;6.092;2023-04-08T01:15:21;28.85;;;18.40;;
23952;SDS011;12163;49.316;6.092;2023-04-08T01:17:50;30.77;;;18.27;;
23952;SDS011;12163;49.316;6.092;2023-04-08T01:20:19;25.98;;;17.40;;
23952;SDS011;12163;49.316;6.092;2023-04-08T01:25:29;29.58;;;17.83;;
23952;SDS011;12163;49.316;6.092;2023-04-08T01:27:59;28.30;;;17.75;;
23952;SDS011;12163;49.316;6.092;2023-04-08T01:30:27;29.48;;;17.52;;
23952;SDS011;12163;49.316;6.092;2023-04-08T01:32:56;30.85;;;17.58;;
23952;SDS011;12163;49.316;6.092;2023-04-08T01:35:23;26.48;;;17.70;;
23952;SDS011;12163;49.316;6.092;2023-04-08T01:37:50;25.52;;;16.25;;
23952;SDS011;12163;49.316;6.092;2023-04-08T01:40:18;31.02;;;17.27;;
23952;SDS011;12163;49.316;6.092;2023-04-08T01:42:48;27.17;;;16.85;;
23952;SDS011;12163;49.316;6.092;2023-04-08T01:45:18;30.42;;;17.45;;
23952;SDS011;12163;49.316;6.092;2023-04-08T01:47:45;30.33;;;17.27;;
23952;SDS011;12163;49.316;6.092;2023-04-08T01:50:14;32.78;;;18.90;;
23952;SDS011;12163;49.316;6.092;2023-04-08T01:52:42;27.45;;;17.88;;
23952;SDS011;12163;49.316;6.092;2023-04-08T01:55:10;31.02;;;18.77;;
23952;SDS011;12163;49.316;6.092;2023-04-08T01:57:37;30.83;;;19.58;;
23952;SDS011;12163;49.316;6.092;2023-04-08T02:00:09;31.73;;;18.27;;
23952;SDS011;12163;49.316;6.092;2023-04-08T02:02:39;35.25;;;18.92;;
23952;SDS011;12163;49.316;6.092;2023-04-08T02:05:08;27.40;;;17.27;;
23952;SDS011;12163;49.316;6.092;2023-04-08T02:07:35;30.48;;;19.05;;
23952;SDS011;12163;49.316;6.092;2023-04-08T02:10:02;29.95;;;18.73;;
23952;SDS011;12163;49.316;6.092;2023-04-08T02:12:29;34.45;;;19.50;;
23952;SDS011;12163;49.316;6.092;2023-04-08T02:14:56;30.15;;;17.45;;
23952;SDS011;12163;49.316;6.092;2023-04-08T02:18:08;30.40;;;18.65;;
23952;SDS011;12163;49.316;6.092;2023-04-08T02:20:16;35.75;;;19.70;;
23952;SDS011;12163;49.316;6.092;2023-04-08T02:25:48;40.67;;;21.77;;
23952;SDS011;12163;49.316;6.092;2023-04-08T02:28:17;30.92;;;20.08;;
23952;SDS011;12163;49.316;6.092;2023-04-08T02:30:48;33.67;;;20.27;;
23952;SDS011;12163;49.316;6.092;2023-04-08T02:33:20;38.08;;;20.63;;
23952;SDS011;12163;49.316;6.092;2023-04-08T02:35:48;34.53;;;21.65;;
23952;SDS011;12163;49.316;6.092;2023-04-08T02:38:16;35.17;;;20.95;;
23952;SDS011;12163;49.316;6.092;2023-04-08T02:40:43;35.65;;;20.13;;
23952;SDS011;12163;49.316;6.092;2023-04-08T02:43:10;38.20;;;20.92;;
23952;SDS011;12163;49.316;6.092;2023-04-08T02:45:40;31.85;;;20.13;;
23952;SDS011;12163;49.316;6.092;2023-04-08T02:48:08;36.35;;;20.10;;
23952;SDS011;12163;49.316;6.092;2023-04-08T02:50:35;33.20;;;20.95;;
23952;SDS011;12163;49.316;6.092;2023-04-08T02:53:02;31.77;;;19.00;;
23952;SDS011;12163;49.316;6.092;2023-04-08T02:55:29;33.95;;;19.65;;
23952;SDS011;12163;49.316;6.092;2023-04-08T02:57:56;36.00;;;19.83;;
23952;SDS011;12163;49.316;6.092;2023-04-08T03:00:22;32.90;;;18.90;;
23952;SDS011;12163;49.316;6.092;2023-04-08T03:02:49;37.35;;;20.63;;
23952;SDS011;12163;49.316;6.092;2023-04-08T03:05:16;39.20;;;19.95;;
23952;SDS011;12163;49.316;6.092;2023-04-08T03:07:42;32.58;;;20.42;;
23952;SDS011;12163;49.316;6.092;2023-04-08T03:10:09;36.22;;;20.85;;
23952;SDS011;12163;49.316;6.092;2023-04-08T03:12:36;37.00;;;20.70;;
23952;SDS011;12163;49.316;6.092;2023-04-08T03:15:03;34.17;;;19.35;;
23952;SDS011;12163;49.316;6.092;2023-04-08T03:17:29;37.05;;;20.35;;
23952;SDS011;12163;49.316;6.092;2023-04-08T03:20:02;32.33;;;19.50;;
23952;SDS011;12163;49.316;6.092;2023-04-08T03:22:30;33.50;;;19.83;;
23952;SDS011;12163;49.316;6.092;2023-04-08T03:24:57;35.92;;;19.88;;
23952;SDS011;12163;49.316;6.092;2023-04-08T03:27:23;35.25;;;21.58;;
23952;SDS011;12163;49.316;6.092;2023-04-08T03:29:50;36.95;;;20.48;;
23952;SDS011;12163;49.316;6.092;2023-04-08T03:32:18;35.15;;;21.05;;
23952;SDS011;12163;49.316;6.092;2023-04-08T03:34:45;42.10;;;21.75;;
23952;SDS011;12163;49.316;6.092;2023-04-08T03:37:11;38.75;;;20.08;;
23952;SDS011;12163;49.316;6.092;2023-04-08T03:39:38;44.78;;;21.00;;
23952;SDS011;12163;49.316;6.092;2023-04-08T03:42:04;38.33;;;20.77;;
23952;SDS011;12163;49.316;6.092;2023-04-08T03:44:31;37.30;;;20.83;;
23952;SDS011;12163;49.316;6.092;2023-04-08T03:46:58;35.08;;;20.55;;
23952;SDS011;12163;49.316;6.092;2023-04-08T03:49:24;41.28;;;21.42;;
23952;SDS011;12163;49.316;6.092;2023-04-08T03:51:51;37.10;;;20.35;;
23952;SDS011;12163;49.316;6.092;2023-04-08T03:54:17;35.22;;;19.45;;
23952;SDS011;12163;49.316;6.092;2023-04-08T03:56:44;37.28;;;20.38;;
23952;SDS011;12163;49.316;6.092;2023-04-08T03:59:10;36.42;;;20.48;;
23952;SDS011;12163;49.316;6.092;2023-04-08T04:01:37;37.40;;;20.02;;
23952;SDS011;12163;49.316;6.092;2023-04-08T04:04:06;33.33;;;19.80;;
23952;SDS011;12163;49.316;6.092;2023-04-08T04:06:33;34.50;;;20.48;;
23952;SDS011;12163;49.316;6.092;2023-04-08T04:09:00;33.45;;;20.02;;
23952;SDS011;12163;49.316;6.092;2023-04-08T04:11:27;35.85;;;20.35;;
23952;SDS011;12163;49.316;6.092;2023-04-08T04:13:53;33.88;;;19.45;;
23952;SDS011;12163;49.316;6.092;2023-04-08T04:16:20;31.63;;;20.08;;
23952;SDS011;12163;49.316;6.092;2023-04-08T04:18:46;37.72;;;20.08;;
23952;SDS011;12163;49.316;6.092;2023-04-08T04:21:13;33.60;;;18.92;;
23952;SDS011;12163;49.316;6.092;2023-04-08T04:23:40;37.70;;;20.00;;
23952;SDS011;12163;49.316;6.092;2023-04-08T04:26:07;31.38;;;18.80;;
23952;SDS011;12163;49.316;6.092;2023-04-08T04:28:35;39.97;;;21.17;;
23952;SDS011;12163;49.316;6.092;2023-04-08T04:31:02;34.63;;;19.70;;
23952;SDS011;12163;49.316;6.092;2023-04-08T04:33:29;32.17;;;18.45;;
23952;SDS011;12163;49.316;6.092;2023-04-08T04:35:56;40.20;;;19.83;;
23952;SDS011;12163;49.316;6.092;2023-04-08T04:38:23;32.35;;;20.35;;
23952;SDS011;12163;49.316;6.092;2023-04-08T04:40:49;34.58;;;19.48;;
23952;SDS011;12163;49.316;6.092;2023-04-08T04:43:16;30.80;;;19.58;;
23952;SDS011;12163;49.316;6.092;2023-04-08T04:45:42;34.55;;;20.58;;
23952;SDS011;12163;49.316;6.092;2023-04-08T04:48:10;31.00;;;19.95;;
23952;SDS011;12163;49.316;6.092;2023-04-08T04:50:36;39.30;;;21.02;;
23952;SDS011;12163;49.316;6.092;2023-04-08T04:53:03;38.88;;;22.30;;
23952;SDS011;12163;49.316;6.092;2023-04-08T04:55:30;41.55;;;18.15;;
23952;SDS011;12163;49.316;6.092;2023-04-08T04:57:56;30.38;;;17.90;;
23952;SDS011;12163;49.316;6.092;2023-04-08T05:00:23;22.77;;;14.13;;
23952;SDS011;12163;49.316;6.092;2023-04-08T05:02:49;26.75;;;17.77;;
23952;SDS011;12163;49.316;6.092;2023-04-08T05:05:17;29.67;;;17.98;;
23952;SDS011;12163;49.316;6.092;2023-04-08T05:07:43;25.48;;;17.23;;
23952;SDS011;12163;49.316;6.092;2023-04-08T05:10:10;31.30;;;18.45;;
23952;SDS011;12163;49.316;6.092;2023-04-08T05:12:36;27.33;;;18.33;;
23952;SDS011;12163;49.316;6.092;2023-04-08T05:15:04;40.38;;;26.77;;
23952;SDS011;12163;49.316;6.092;2023-04-08T05:17:31;36.13;;;22.00;;
23952;SDS011;12163;49.316;6.092;2023-04-08T05:19:58;29.67;;;21.33;;
23952;SDS011;12163;49.316;6.092;2023-04-08T05:22:25;37.10;;;20.80;;
23952;SDS011;12163;49.316;6.092;2023-04-08T05:24:51;32.20;;;20.67;;
23952;SDS011;12163;49.316;6.092;2023-04-08T05:27:18;25.42;;;16.30;;
23952;SDS011;12163;49.316;6.092;2023-04-08T05:29:44;32.47;;;19.10;;
23952;SDS011;12163;49.316;6.092;2023-04-08T05:32:11;30.30;;;19.88;;
23952;SDS011;12163;49.316;6.092;2023-04-08T05:34:38;35.28;;;19.77;;
23952;SDS011;12163;49.316;6.092;2023-04-08T05:37:04;29.92;;;18.02;;
23952;SDS011;12163;49.316;6.092;2023-04-08T05:39:31;32.60;;;19.58;;
23952;SDS011;12163;49.316;6.092;2023-04-08T05:41:57;33.13;;;19.67;;
23952;SDS011;12163;49.316;6.092;2023-04-08T05:44:24;32.90;;;19.90;;
23952;SDS011;12163;49.316;6.092;2023-04-08T05:46:50;24.50;;;17.10;;
23952;SDS011;12163;49.316;6.092;2023-04-08T05:49:17;35.50;;;19.65;;
23952;SDS011;12163;49.316;6.092;2023-04-08T05:51:44;28.42;;;18.48;;
23952;SDS011;12163;49.316;6.092;2023-04-08T05:54:10;27.08;;;18.60;;
23952;SDS011;12163;49.316;6.092;2023-04-08T05:56:37;33.35;;;20.50;;
23952;SDS011;12163;49.316;6.092;2023-04-08T05:59:04;33.67;;;20.30;;
23952;SDS011;12163;49.316;6.092;2023-04-08T06:01:30;36.63;;;21.60;;
23952;SDS011;12163;49.316;6.092;2023-04-08T06:03:57;39.30;;;23.08;;
23952;SDS011;12163;49.316;6.092;2023-04-08T06:06:24;38.70;;;23.88;;
23952;SDS011;12163;49.316;6.092;2023-04-08T06:08:51;38.58;;;22.73;;
23952;SDS011;12163;49.316;6.092;2023-04-08T06:11:18;36.75;;;22.60;;
23952;SDS011;12163;49.316;6.092;2023-04-08T06:13:44;42.80;;;22.80;;
23952;SDS011;12163;49.316;6.092;2023-04-08T06:18:39;38.40;;;22.73;;
23952;SDS011;12163;49.316;6.092;2023-04-08T06:21:06;35.65;;;23.10;;
23952;SDS011;12163;49.316;6.092;2023-04-08T06:23:32;39.83;;;22.58;;
23952;SDS011;12163;49.316;6.092;2023-04-08T06:25:59;38.03;;;22.92;;
23952;SDS011;12163;49.316;6.092;2023-04-08T06:28:27;39.80;;;23.38;;
23952;SDS011;12163;49.316;6.092;2023-04-08T06:30:54;38.80;;;24.15;;
23952;SDS011;12163;49.316;6.092;2023-04-08T06:33:21;39.35;;;23.33;;
23952;SDS011;12163;49.316;6.092;2023-04-08T06:35:48;38.22;;;23.77;;
23952;SDS011;12163;49.316;6.092;2023-04-08T06:38:14;37.80;;;23.92;;
23952;SDS011;12163;49.316;6.092;2023-04-08T06:40:41;42.60;;;23.90;;
23952;SDS011;12163;49.316;6.092;2023-04-08T06:43:07;38.03;;;23.88;;
23952;SDS011;12163;49.316;6.092;2023-04-08T06:45:34;43.08;;;23.52;;
23952;SDS011;12163;49.316;6.092;2023-04-08T06:48:01;35.58;;;22.40;;
23952;SDS011;12163;49.316;6.092;2023-04-08T06:50:27;32.00;;;21.17;;
23952;SDS011;12163;49.316;6.092;2023-04-08T06:52:54;35.53;;;21.23;;
23952;SDS011;12163;49.316;6.092;2023-04-08T06:55:21;33.40;;;21.45;;
23952;SDS011;12163;49.316;6.092;2023-04-08T06:57:47;34.05;;;20.55;;
23952;SDS011;12163;49.316;6.092;2023-04-08T07:00:14;31.30;;;20.33;;
23952;SDS011;12163;49.316;6.092;2023-04-08T07:02:41;30.58;;;20.10;;
23952;SDS011;12163;49.316;6.092;2023-04-08T07:05:07;32.28;;;20.75;;
23952;SDS011;12163;49.316;6.092;2023-04-08T07:07:34;31.15;;;19.80;;
23952;SDS011;12163;49.316;6.092;2023-04-08T07:10:01;30.10;;;19.80;;
23952;SDS011;12163;49.316;6.092;2023-04-08T07:12:28;31.55;;;19.40;;
23952;SDS011;12163;49.316;6.092;2023-04-08T07:14:54;31.25;;;20.90;;
23952;SDS011;12163;49.316;6.092;2023-04-08T07:17:21;38.92;;;21.92;;
23952;SDS011;12163;49.316;6.092;2023-04-08T07:19:47;30.75;;;20.88;;
23952;SDS011;12163;49.316;6.092;2023-04-08T07:22:14;34.03;;;21.70;;
23952;SDS011;12163;49.316;6.092;2023-04-08T07:24:41;37.40;;;24.38;;
23952;SDS011;12163;49.316;6.092;2023-04-08T07:27:10;42.15;;;25.48;;
23952;SDS011;12163;49.316;6.092;2023-04-08T07:29:38;37.22;;;24.42;;
23952;SDS011;12163;49.316;6.092;2023-04-08T07:32:05;36.35;;;24.38;;
23952;SDS011;12163;49.316;6.092;2023-04-08T07:34:35;34.30;;;22.50;;
23952;SDS011;12163;49.316;6.092;2023-04-08T07:37:02;35.55;;;23.50;;
23952;SDS011;12163;49.316;6.092;2023-04-08T07:39:28;30.80;;;21.20;;
23952;SDS011;12163;49.316;6.092;2023-04-08T07:41:55;37.65;;;22.45;;
23952;SDS011;12163;49.316;6.092;2023-04-08T07:44:22;31.63;;;20.58;;
23952;SDS011;12163;49.316;6.092;2023-04-08T07:46:49;33.55;;;21.02;;
23952;SDS011;12163;49.316;6.092;2023-04-08T07:49:17;35.45;;;21.52;;
23952;SDS011;12163;49.316;6.092;2023-04-08T07:51:43;37.95;;;22.20;;
23952;SDS011;12163;49.316;6.092;2023-04-08T07:54:10;36.42;;;23.08;;
23952;SDS011;12163;49.316;6.092;2023-04-08T07:56:37;38.50;;;22.20;;
23952;SDS011;12163;49.316;6.092;2023-04-08T07:59:05;37.45;;;24.65;;
23952;SDS011;12163;49.316;6.092;2023-04-08T08:01:32;39.92;;;23.42;;
23952;SDS011;12163;49.316;6.092;2023-04-08T08:04:01;40.15;;;23.65;;
23952;SDS011;12163;49.316;6.092;2023-04-08T08:06:28;35.40;;;22.58;;
23952;SDS011;12163;49.316;6.092;2023-04-08T08:08:57;37.95;;;20.88;;
23952;SDS011;12163;49.316;6.092;2023-04-08T08:11:25;33.38;;;20.10;;
23952;SDS011;12163;49.316;6.092;2023-04-08T08:13:54;29.98;;;21.10;;
23952;SDS011;12163;49.316;6.092;2023-04-08T08:16:21;31.65;;;19.83;;
23952;SDS011;12163;49.316;6.092;2023-04-08T08:18:48;32.75;;;19.63;;
23952;SDS011;12163;49.316;6.092;2023-04-08T08:21:14;29.75;;;19.48;;
23952;SDS011;12163;49.316;6.092;2023-04-08T08:23:41;31.90;;;18.42;;
23952;SDS011;12163;49.316;6.092;2023-04-08T08:26:08;31.52;;;17.80;;
23952;SDS011;12163;49.316;6.092;2023-04-08T08:28:36;26.40;;;17.60;;
23952;SDS011;12163;49.316;6.092;2023-04-08T08:31:03;26.50;;;17.73;;
23952;SDS011;12163;49.316;6.092;2023-04-08T08:33:31;30.08;;;17.25;;
23952;SDS011;12163;49.316;6.092;2023-04-08T08:35:58;27.17;;;16.85;;
23952;SDS011;12163;49.316;6.092;2023-04-08T08:38:25;26.05;;;17.33;;
23952;SDS011;12163;49.316;6.092;2023-04-08T08:40:55;27.67;;;17.80;;
23952;SDS011;12163;49.316;6.092;2023-04-08T08:43:23;27.52;;;16.52;;
23952;SDS011;12163;49.316;6.092;2023-04-08T08:45:50;27.25;;;17.23;;
23952;SDS011;12163;49.316;6.092;2023-04-08T08:48:16;30.58;;;18.45;;
23952;SDS011;12163;49.316;6.092;2023-04-08T08:50:43;26.33;;;16.92;;
23952;SDS011;12163;49.316;6.092;2023-04-08T08:53:10;24.13;;;18.33;;
23952;SDS011;12163;49.316;6.092;2023-04-08T08:55:38;23.42;;;15.70;;
23952;SDS011;12163;49.316;6.092;2023-04-08T08:58:28;25.52;;;16.90;;
23952;SDS011;12163;49.316;6.092;2023-04-08T09:00:54;27.35;;;17.25;;
23952;SDS011;12163;49.316;6.092;2023-04-08T09:03:24;22.20;;;15.77;;
23952;SDS011;12163;49.316;6.092;2023-04-08T09:05:59;25.15;;;15.88;;
23952;SDS011;12163;49.316;6.092;2023-04-08T09:08:30;22.83;;;16.52;;
23952;SDS011;12163;49.316;6.092;2023-04-08T09:13:38;23.20;;;16.00;;
23952;SDS011;12163;49.316;6.092;2023-04-08T09:16:06;25.63;;;15.25;;
23952;SDS011;12163;49.316;6.092;2023-04-08T09:18:37;24.90;;;15.73;;
23952;SDS011;12163;49.316;6.092;2023-04-08T09:21:04;20.90;;;15.40;;
23952;SDS011;12163;49.316;6.092;2023-04-08T09:26:10;24.60;;;16.35;;
23952;SDS011;12163;49.316;6.092;2023-04-08T09:28:42;22.08;;;15.05;;
23952;SDS011;12163;49.316;6.092;2023-04-08T09:31:20;20.65;;;14.57;;
23952;SDS011;12163;49.316;6.092;2023-04-08T09:33:48;20.88;;;15.85;;
23952;SDS011;12163;49.316;6.092;2023-04-08T09:36:17;23.20;;;15.60;;
23952;SDS011;12163;49.316;6.092;2023-04-08T09:38:44;20.15;;;15.10;;
23952;SDS011;12163;49.316;6.092;2023-04-08T09:41:13;21.83;;;14.50;;
23952;SDS011;12163;49.316;6.092;2023-04-08T09:43:44;18.67;;;14.05;;
23952;SDS011;12163;49.316;6.092;2023-04-08T09:46:17;19.48;;;13.50;;
23952;SDS011;12163;49.316;6.092;2023-04-08T09:48:55;21.58;;;14.40;;
23952;SDS011;12163;49.316;6.092;2023-04-08T09:51:44;17.27;;;13.32;;
23952;SDS011;12163;49.316;6.092;2023-04-08T10:00:24;21.10;;;14.63;;
23952;SDS011;12163;49.316;6.092;2023-04-08T10:05:53;18.00;;;13.82;;
23952;SDS011;12163;49.316;6.092;2023-04-08T10:08:24;20.95;;;13.75;;
23952;SDS011;12163;49.316;6.092;2023-04-08T10:10:52;20.35;;;13.45;;
23952;SDS011;12163;49.316;6.092;2023-04-08T10:13:20;22.98;;;13.13;;
23952;SDS011;12163;49.316;6.092;2023-04-08T10:15:47;18.17;;;12.10;;
23952;SDS011;12163;49.316;6.092;2023-04-08T10:20:44;16.52;;;13.25;;
23952;SDS011;12163;49.316;6.092;2023-04-08T10:23:15;18.08;;;12.73;;
23952;SDS011;12163;49.316;6.092;2023-04-08T10:25:43;17.10;;;13.05;;
23952;SDS011;12163;49.316;6.092;2023-04-08T10:30:44;16.10;;;12.30;;
23952;SDS011;12163;49.316;6.092;2023-04-08T10:33:16;17.35;;;12.45;;
23952;SDS011;12163;49.316;6.092;2023-04-08T10:35:52;16.27;;;13.13;;
23952;SDS011;12163;49.316;6.092;2023-04-08T10:38:19;17.48;;;12.25;;
23952;SDS011;12163;49.316;6.092;2023-04-08T10:40:46;19.35;;;12.50;;
23952;SDS011;12163;49.316;6.092;2023-04-08T10:43:14;16.40;;;11.77;;
23952;SDS011;12163;49.316;6.092;2023-04-08T10:45:41;14.95;;;11.82;;
23952;SDS011;12163;49.316;6.092;2023-04-08T10:50:39;12.73;;;9.50;;
23952;SDS011;12163;49.316;6.092;2023-04-08T10:53:06;12.77;;;9.98;;
23952;SDS011;12163;49.316;6.092;2023-04-08T10:55:33;13.57;;;9.50;;
23952;SDS011;12163;49.316;6.092;2023-04-08T10:58:09;15.98;;;10.32;;
23952;SDS011;12163;49.316;6.092;2023-04-08T11:00:38;13.07;;;8.90;;
23952;SDS011;12163;49.316;6.092;2023-04-08T11:03:06;12.45;;;9.18;;
23952;SDS011;12163;49.316;6.092;2023-04-08T11:05:34;14.98;;;10.30;;
23952;SDS011;12163;49.316;6.092;2023-04-08T11:08:02;13.00;;;9.70;;
23952;SDS011;12163;49.316;6.092;2023-04-08T11:10:30;12.98;;;10.02;;
23952;SDS011;12163;49.316;6.092;2023-04-08T11:13:01;9.60;;;8.13;;
23952;SDS011;12163;49.316;6.092;2023-04-08T11:15:29;13.85;;;10.02;;
23952;SDS011;12163;49.316;6.092;2023-04-08T11:17:56;13.32;;;9.73;;
23952;SDS011;12163;49.316;6.092;2023-04-08T11:20:23;14.63;;;9.57;;
23952;SDS011;12163;49.316;6.092;2023-04-08T11:22:50;13.73;;;9.75;;
23952;SDS011;12163;49.316;6.092;2023-04-08T11:25:17;12.70;;;8.50;;
23952;SDS011;12163;49.316;6.092;2023-04-08T11:27:44;15.05;;;10.48;;
23952;SDS011;12163;49.316;6.092;2023-04-08T11:30:10;13.35;;;9.95;;
23952;SDS011;12163;49.316;6.092;2023-04-08T11:32:37;13.65;;;9.27;;
23952;SDS011;12163;49.316;6.092;2023-04-08T11:35:05;13.98;;;8.98;;
23952;SDS011;12163;49.316;6.092;2023-04-08T11:37:36;13.95;;;8.82;;
23952;SDS011;12163;49.316;6.092;2023-04-08T11:40:07;11.45;;;8.20;;
23952;SDS011;12163;49.316;6.092;2023-04-08T11:42:34;13.02;;;8.85;;
23952;SDS011;12163;49.316;6.092;2023-04-08T11:45:01;12.43;;;8.40;;
23952;SDS011;12163;49.316;6.092;2023-04-08T11:47:36;12.00;;;9.15;;
23952;SDS011;12163;49.316;6.092;2023-04-08T11:50:03;15.25;;;9.25;;
23952;SDS011;12163;49.316;6.092;2023-04-08T11:58:00;13.43;;;9.30;;
23952;SDS011;12163;49.316;6.092;2023-04-08T12:00:28;12.25;;;8.23;;
23952;SDS011;12163;49.316;6.092;2023-04-08T12:02:55;13.63;;;8.45;;
23952;SDS011;12163;49.316;6.092;2023-04-08T12:05:21;12.57;;;8.73;;
23952;SDS011;12163;49.316;6.092;2023-04-08T12:07:48;10.80;;;7.55;;
23952;SDS011;12163;49.316;6.092;2023-04-08T12:10:15;10.30;;;7.78;;
23952;SDS011;12163;49.316;6.092;2023-04-08T12:12:41;13.00;;;8.38;;
23952;SDS011;12163;49.316;6.092;2023-04-08T12:15:08;11.13;;;8.02;;
23952;SDS011;12163;49.316;6.092;2023-04-08T12:17:36;14.23;;;8.40;;
23952;SDS011;12163;49.316;6.092;2023-04-08T12:20:04;12.18;;;8.80;;
23952;SDS011;12163;49.316;6.092;2023-04-08T12:22:32;13.93;;;8.73;;
23952;SDS011;12163;49.316;6.092;2023-04-08T12:24:58;16.77;;;9.00;;
23952;SDS011;12163;49.316;6.092;2023-04-08T12:27:25;10.77;;;7.93;;
23952;SDS011;12163;49.316;6.092;2023-04-08T12:29:52;10.25;;;7.50;;
23952;SDS011;12163;49.316;6.092;2023-04-08T12:32:18;10.13;;;7.50;;
23952;SDS011;12163;49.316;6.092;2023-04-08T12:34:45;10.23;;;6.70;;
23952;SDS011;12163;49.316;6.092;2023-04-08T12:37:12;11.63;;;6.82;;
23952;SDS011;12163;49.316;6.092;2023-04-08T12:39:39;9.20;;;6.75;;
23952;SDS011;12163;49.316;6.092;2023-04-08T12:42:05;9.85;;;7.05;;
23952;SDS011;12163;49.316;6.092;2023-04-08T12:44:32;9.65;;;6.78;;
23952;SDS011;12163;49.316;6.092;2023-04-08T12:46:58;10.73;;;7.75;;
23952;SDS011;12163;49.316;6.092;2023-04-08T12:49:25;12.23;;;7.95;;
23952;SDS011;12163;49.316;6.092;2023-04-08T12:51:53;13.25;;;8.40;;
23952;SDS011;12163;49.316;6.092;2023-04-08T12:54:20;12.02;;;8.18;;
23952;SDS011;12163;49.316;6.092;2023-04-08T12:56:46;12.57;;;8.50;;
23952;SDS011;12163;49.316;6.092;2023-04-08T12:59:14;12.30;;;8.00;;
23952;SDS011;12163;49.316;6.092;2023-04-08T13:01:41;16.35;;;8.43;;
23952;SDS011;12163;49.316;6.092;2023-04-08T13:04:08;10.52;;;7.43;;
23952;SDS011;12163;49.316;6.092;2023-04-08T13:06:34;11.10;;;7.63;;
23952;SDS011;12163;49.316;6.092;2023-04-08T13:09:01;14.82;;;8.73;;
23952;SDS011;12163;49.316;6.092;2023-04-08T13:11:27;9.68;;;7.43;;
23952;SDS011;12163;49.316;6.092;2023-04-08T13:13:54;9.25;;;6.85;;
23952;SDS011;12163;49.316;6.092;2023-04-08T13:16:21;13.38;;;7.57;;
23952;SDS011;12163;49.316;6.092;2023-04-08T13:18:48;11.20;;;7.10;;
23952;SDS011;12163;49.316;6.092;2023-04-08T13:21:15;8.93;;;6.07;;
23952;SDS011;12163;49.316;6.092;2023-04-08T13:23:41;11.07;;;6.47;;
23952;SDS011;12163;49.316;6.092;2023-04-08T13:26:08;8.77;;;6.15;;
23952;SDS011;12163;49.316;6.092;2023-04-08T13:28:34;8.85;;;6.50;;
23952;SDS011;12163;49.316;6.092;2023-04-08T13:31:19;9.18;;;6.18;;
23952;SDS011;12163;49.316;6.092;2023-04-08T13:33:45;8.15;;;6.45;;
23952;SDS011;12163;49.316;6.092;2023-04-08T13:36:12;9.52;;;6.70;;
23952;SDS011;12163;49.316;6.092;2023-04-08T13:38:39;10.07;;;6.60;;
23952;SDS011;12163;49.316;6.092;2023-04-08T13:41:06;9.18;;;6.30;;
23952;SDS011;12163;49.316;6.092;2023-04-08T13:43:32;10.07;;;6.28;;
23952;SDS011;12163;49.316;6.092;2023-04-08T13:45:59;8.23;;;5.72;;
23952;SDS011;12163;49.316;6.092;2023-04-08T13:48:25;7.70;;;6.05;;
23952;SDS011;12163;49.316;6.092;2023-04-08T13:50:52;8.95;;;5.88;;
23952;SDS011;12163;49.316;6.092;2023-04-08T13:53:18;9.32;;;5.40;;
23952;SDS011;12163;49.316;6.092;2023-04-08T13:55:45;10.18;;;5.43;;
23952;SDS011;12163;49.316;6.092;2023-04-08T13:58:12;7.90;;;5.35;;
23952;SDS011;12163;49.316;6.092;2023-04-08T14:00:48;7.45;;;5.40;;
23952;SDS011;12163;49.316;6.092;2023-04-08T14:03:17;6.63;;;5.22;;
23952;SDS011;12163;49.316;6.092;2023-04-08T14:05:44;8.88;;;5.85;;
23952;SDS011;12163;49.316;6.092;2023-04-08T14:08:11;9.82;;;5.70;;
23952;SDS011;12163;49.316;6.092;2023-04-08T14:10:39;10.15;;;5.40;;
23952;SDS011;12163;49.316;6.092;2023-04-08T14:13:07;9.18;;;5.50;;
23952;SDS011;12163;49.316;6.092;2023-04-08T14:15:34;8.50;;;4.90;;
23952;SDS011;12163;49.316;6.092;2023-04-08T14:18:01;8.70;;;5.90;;
23952;SDS011;12163;49.316;6.092;2023-04-08T14:20:28;9.45;;;5.85;;
23952;SDS011;12163;49.316;6.092;2023-04-08T14:22:55;9.30;;;6.50;;
23952;SDS011;12163;49.316;6.092;2023-04-08T14:25:22;9.77;;;6.20;;
23952;SDS011;12163;49.316;6.092;2023-04-08T14:27:49;7.90;;;5.78;;
23952;SDS011;12163;49.316;6.092;2023-04-08T14:30:23;7.85;;;5.38;;
23952;SDS011;12163;49.316;6.092;2023-04-08T14:32:50;8.48;;;5.18;;
23952;SDS011;12163;49.316;6.092;2023-04-08T14:35:17;9.63;;;5.47;;
23952;SDS011;12163;49.316;6.092;2023-04-08T14:37:44;11.00;;;5.05;;
23952;SDS011;12163;49.316;6.092;2023-04-08T14:40:11;6.78;;;4.70;;
23952;SDS011;12163;49.316;6.092;2023-04-08T14:42:37;8.45;;;5.20;;
23952;SDS011;12163;49.316;6.092;2023-04-08T14:45:04;9.13;;;5.22;;
23952;SDS011;12163;49.316;6.092;2023-04-08T14:47:31;10.57;;;5.05;;
23952;SDS011;12163;49.316;6.092;2023-04-08T14:49:58;7.50;;;4.80;;
23952;SDS011;12163;49.316;6.092;2023-04-08T14:52:24;7.28;;;5.10;;
23952;SDS011;12163;49.316;6.092;2023-04-08T14:54:51;6.78;;;4.90;;
23952;SDS011;12163;49.316;6.092;2023-04-08T14:58:19;8.25;;;5.60;;
23952;SDS011;12163;49.316;6.092;2023-04-08T15:00:46;8.63;;;5.38;;
23952;SDS011;12163;49.316;6.092;2023-04-08T15:03:13;7.55;;;5.35;;
23952;SDS011;12163;49.316;6.092;2023-04-08T15:05:40;6.20;;;4.07;;
23952;SDS011;12163;49.316;6.092;2023-04-08T15:08:07;5.88;;;4.40;;
23952;SDS011;12163;49.316;6.092;2023-04-08T15:10:34;4.65;;;3.80;;
23952;SDS011;12163;49.316;6.092;2023-04-08T15:13:01;5.60;;;3.95;;